This is the latest recevied weather packets stored in our database for station/object PA1CD-13. If no packets are shown the sender has not sent any weather packets the latest 10 day(s).
| Time | Temp. | Humidity | Pressure | Rain* | Wind** | Luminosity | Snow |
|---|---|---|---|---|---|---|---|
| 1777637882 | 22.78° C | 35% | 1022.7 hPa | 0 mm | - | 789 W/m² | - |
| 1777637763 | 22.78° C | 35% | 1022.7 hPa | 0 mm | - | 791 W/m² | - |
| 1777637643 | 22.78° C | 35% | 1022.9 hPa | 0 mm | - | 789 W/m² | - |
| 1777637522 | 22.78° C | 35% | 1022.9 hPa | 0 mm | - | 789 W/m² | - |
| 1777637404 | 22.78° C | 38% | 1022.9 hPa | 0 mm | - | 791 W/m² | - |
| 1777637282 | 22.78° C | 38% | 1022.9 hPa | 0 mm | - | 795 W/m² | - |
| 1777637163 | 22.78° C | 36% | 1023 hPa | 0 mm | - | 793 W/m² | - |
| 1777637042 | 22.78° C | 37% | 1022.9 hPa | 0 mm | - | 797 W/m² | - |
| 1777636923 | 22.78° C | 37% | 1023 hPa | 0 mm | - | 797 W/m² | - |
| 1777636806 | 22.78° C | 37% | 1023 hPa | 0 mm | - | 798 W/m² | - |
| 1777636682 | 22.78° C | 38% | 1023.1 hPa | 0 mm | - | 797 W/m² | - |
| 1777636563 | 22.78° C | 38% | 1023.2 hPa | 0 mm | - | 797 W/m² | - |
| 1777636442 | 22.78° C | 38% | 1023.1 hPa | 0 mm | - | 797 W/m² | - |
| 1777636322 | 22.78° C | 38% | 1023.1 hPa | 0 mm | - | 797 W/m² | - |
| 1777636203 | 22.22° C | 38% | 1023.2 hPa | 0 mm | - | 797 W/m² | - |
| 1777636082 | 22.22° C | 38% | 1023.2 hPa | 0 mm | - | 797 W/m² | - |
| 1777635962 | 22.22° C | 38% | 1023.2 hPa | 0 mm | - | 797 W/m² | - |
| 1777635843 | 22.22° C | 38% | 1023.2 hPa | 0 mm | - | 798 W/m² | - |
| 1777635722 | 22.22° C | 38% | 1023.2 hPa | 0 mm | - | 797 W/m² | - |
| 1777635603 | 22.22° C | 39% | 1023.2 hPa | 0 mm | - | 797 W/m² | - |
| 1777635483 | 22.22° C | 38% | 1023.2 hPa | 0 mm | - | 797 W/m² | - |
| 1777635363 | 22.22° C | 39% | 1023.3 hPa | 0 mm | - | 795 W/m² | - |
| 1777635242 | 22.22° C | 38% | 1023.2 hPa | 0 mm | - | 798 W/m² | - |
| 1777635125 | 22.22° C | 39% | 1023.4 hPa | 0 mm | - | 798 W/m² | - |
| 1777635006 | 22.22° C | 39% | 1023.4 hPa | 0 mm | - | 795 W/m² | - |
* Rain latest hour (hover to see other rain measurements)
** Current wind speed in m/s (hover to see current wind gust speed)